createdAt,value
2017-10-20T05:26:11.537Z,1
2017-10-20T05:31:41.782Z,2
2017-10-20T05:34:11.867Z,3
2017-10-20T05:35:41.946Z,4
2017-10-20T05:36:41.948Z,5
2017-10-20T05:38:12.005Z,6
2017-10-20T05:38:42.052Z,7
2017-10-20T05:39:42.057Z,8
2017-10-20T05:40:42.085Z,9
2017-10-20T05:41:12.144Z,10
2017-10-20T05:42:12.248Z,11
2017-10-20T05:43:12.178Z,12
2017-10-20T05:43:42.266Z,13
2017-10-20T05:44:42.274Z,14
2017-10-20T05:45:42.276Z,15
2017-10-20T05:46:12.314Z,16
2017-10-20T05:46:42.470Z,17
2017-10-20T05:47:13.500Z,18
2017-10-20T05:47:43.478Z,19
2017-10-20T05:48:13.544Z,20
2017-10-20T05:48:43.498Z,21
2017-10-20T05:49:13.531Z,22
2017-10-20T05:49:43.589Z,23
2017-10-20T05:50:13.593Z,24
2017-10-20T05:50:43.302Z,15
2017-10-20T05:54:43.452Z,20
2017-10-20T05:58:13.550Z,25
2017-10-20T06:01:13.738Z,30
2017-10-20T06:03:13.699Z,35
2017-10-20T06:04:43.758Z,40
2017-10-20T06:06:13.877Z,45
2017-10-20T06:08:43.925Z,50
2017-10-20T06:10:13.961Z,212
2017-10-20T06:10:44.087Z,107
2017-10-20T06:11:14.816Z,112
2017-10-20T06:11:44.809Z,115
2017-10-20T06:12:14.823Z,118
2017-10-20T06:12:44.847Z,120
2017-10-20T06:15:14.998Z,133
2017-10-20T06:15:45.037Z,137
2017-10-20T06:16:15.216Z,142
2017-10-20T06:16:45.072Z,150
2017-10-20T06:17:15.071Z,158
2017-10-20T06:17:45.082Z,165
2017-10-20T06:18:15.059Z,175
2017-10-20T06:18:45.111Z,187
2017-10-20T06:19:15.100Z,200
2017-10-20T06:19:45.263Z,212
2017-10-20T06:20:15.140Z,227
2017-10-20T06:20:45.199Z,240
2017-10-20T06:21:15.235Z,255
2017-10-20T06:21:45.184Z,272
2017-10-20T06:22:15.220Z,287
2017-10-20T06:22:45.269Z,305
2017-10-20T06:23:15.228Z,320
2017-10-20T06:23:45.285Z,340
2017-10-20T06:24:15.315Z,358
2017-10-20T06:24:45.331Z,375
2017-10-20T06:25:15.361Z,392
2017-10-20T06:25:45.359Z,407
2017-10-20T06:26:15.537Z,420
2017-10-20T06:26:45.379Z,433
2017-10-20T06:27:15.436Z,442
2017-10-20T06:27:45.451Z,452
2017-10-20T06:28:15.471Z,465
2017-10-20T06:28:45.501Z,478
2017-10-20T06:29:15.522Z,485
2017-10-20T06:29:45.529Z,495
2017-10-20T06:30:15.589Z,505
2017-10-20T06:30:45.568Z,515
2017-10-20T06:31:15.640Z,525
2017-10-20T06:31:45.563Z,535
2017-10-20T06:32:15.643Z,548
2017-10-20T06:32:45.703Z,560
2017-10-20T06:33:15.681Z,572
2017-10-20T06:33:45.708Z,585
2017-10-20T06:34:15.731Z,600
2017-10-20T06:34:45.710Z,615
2017-10-20T06:35:15.758Z,628
2017-10-20T06:35:45.791Z,640
2017-10-20T06:36:15.843Z,645
2017-10-20T06:36:45.800Z,655
2017-10-20T06:37:15.810Z,662
2017-10-20T06:37:45.891Z,667
2017-10-20T06:38:15.904Z,673
2017-10-20T06:38:45.847Z,675
2017-10-20T06:39:15.908Z,677
2017-10-20T06:39:45.933Z,688
2017-10-20T06:40:15.955Z,698
2017-10-20T06:40:45.957Z,712
2017-10-20T06:41:16.237Z,730
2017-10-20T06:41:46.006Z,752
2017-10-20T06:42:16.016Z,778
2017-10-20T06:42:46.042Z,800
2017-10-20T06:43:16.008Z,825
2017-10-20T06:43:46.033Z,855
2017-10-20T06:44:16.098Z,883
2017-10-20T06:44:46.134Z,910
2017-10-20T06:45:16.147Z,932
2017-10-20T06:45:46.166Z,952
2017-10-20T06:46:16.232Z,967
2017-10-20T06:46:46.199Z,983
2017-10-20T06:47:16.307Z,998
2017-10-20T06:47:46.247Z,1010
2017-10-20T06:48:16.276Z,1020
2017-10-20T06:48:46.266Z,1028
2017-10-20T06:49:16.321Z,1035
2017-10-20T06:49:46.329Z,1040
2017-10-20T06:50:16.292Z,1042
2017-10-20T06:51:16.504Z,1048
2017-10-20T06:51:46.358Z,1055
2017-10-20T06:52:16.420Z,1065
2017-10-20T06:52:46.415Z,1078
2017-10-20T06:53:16.426Z,1088
2017-10-20T06:53:46.555Z,1100
2017-10-20T06:54:16.509Z,1110
2017-10-20T06:54:46.452Z,1120
2017-10-20T06:55:16.486Z,1130
2017-10-20T06:55:46.500Z,1142
2017-10-20T06:56:16.535Z,1157
2017-10-20T06:56:46.647Z,1175
2017-10-20T06:57:16.577Z,1198
2017-10-20T06:57:46.627Z,1228
2017-10-20T06:58:16.587Z,1262
2017-10-20T06:58:46.608Z,1298
2017-10-20T06:59:16.639Z,1333
2017-10-20T06:59:46.647Z,1365
2017-10-20T07:00:16.707Z,1397
2017-10-20T07:00:46.704Z,1433
2017-10-20T07:01:16.766Z,1465
2017-10-20T07:01:46.784Z,1493
2017-10-20T07:02:16.791Z,1515
2017-10-20T07:02:46.784Z,1530
2017-10-20T07:03:16.847Z,1545
2017-10-20T07:03:46.830Z,1568
2017-10-20T07:04:16.874Z,1595
2017-10-20T07:04:46.875Z,1618
2017-10-20T07:05:16.888Z,1650
2017-10-20T07:05:46.907Z,1680
2017-10-20T07:06:17.021Z,1703
2017-10-20T07:06:47.000Z,1720
2017-10-20T07:07:17.018Z,1738
2017-10-20T07:07:47.051Z,1750
2017-10-20T07:08:17.093Z,1760
2017-10-20T07:08:47.041Z,1772
2017-10-20T07:09:17.066Z,1780
2017-10-20T07:09:47.123Z,1783
2017-10-20T07:10:17.094Z,1778
2017-10-20T07:10:47.126Z,1770
2017-10-20T07:11:17.174Z,1765
2017-10-20T07:11:47.265Z,1750
2017-10-20T07:12:17.231Z,1730
2017-10-20T07:12:47.239Z,1705
2017-10-20T07:13:17.239Z,1673
2017-10-20T07:13:47.241Z,1630
2017-10-20T07:14:17.253Z,1580
2017-10-20T07:14:47.340Z,1517
2017-10-20T07:15:17.315Z,1445
2017-10-20T07:15:47.380Z,1380
2017-10-20T07:16:17.372Z,1320
2017-10-20T07:16:47.424Z,1268
2017-10-20T07:17:17.376Z,1215
2017-10-20T07:17:47.424Z,1165
2017-10-20T07:18:17.395Z,1123
2017-10-20T07:18:47.464Z,1100
2017-10-20T07:19:17.452Z,1082
2017-10-20T07:19:47.468Z,1072
2017-10-20T07:20:17.535Z,1063
2017-10-20T07:20:47.494Z,1042
2017-10-20T07:21:17.636Z,1015
2017-10-20T07:21:47.553Z,990
2017-10-20T07:22:17.621Z,962
2017-10-20T07:22:47.564Z,945
2017-10-20T07:23:17.629Z,928
2017-10-20T07:23:47.611Z,913
2017-10-20T07:24:17.618Z,905
2017-10-20T07:24:47.622Z,898
2017-10-20T07:25:17.704Z,895
2017-10-20T07:26:17.676Z,898
2017-10-20T07:26:47.805Z,902
2017-10-20T07:27:17.769Z,898
2017-10-20T07:27:47.735Z,892
2017-10-20T07:28:17.853Z,883
2017-10-20T07:28:47.762Z,865
2017-10-20T07:29:17.804Z,842
2017-10-20T07:29:47.816Z,820
2017-10-20T07:30:17.827Z,800
2017-10-20T07:30:47.851Z,782
2017-10-20T07:31:17.857Z,760
2017-10-20T07:31:48.003Z,733
2017-10-20T07:32:17.889Z,705
2017-10-20T07:32:47.911Z,675
2017-10-20T07:33:17.944Z,645
2017-10-20T07:33:47.952Z,617
2017-10-20T07:34:17.981Z,595
2017-10-20T07:34:47.989Z,580
2017-10-20T07:35:18.007Z,565
2017-10-20T07:35:48.028Z,550
2017-10-20T07:36:18.309Z,538
2017-10-20T07:36:48.145Z,527
2017-10-20T07:37:18.100Z,520
2017-10-20T07:37:48.104Z,512
2017-10-20T07:38:18.155Z,508
2017-10-20T07:38:48.268Z,505
2017-10-20T07:39:18.186Z,500
2017-10-20T07:39:48.240Z,495
2017-10-20T07:40:18.265Z,485
2017-10-20T07:40:48.222Z,480
2017-10-20T07:41:18.263Z,475
2017-10-20T07:41:48.321Z,467
2017-10-20T07:42:18.336Z,463
2017-10-20T07:42:48.290Z,458
2017-10-20T07:43:18.349Z,452
2017-10-20T07:43:48.385Z,445
2017-10-20T07:44:18.380Z,437
2017-10-20T07:44:48.424Z,435
2017-10-20T07:45:18.389Z,430
2017-10-20T07:46:18.472Z,433
2017-10-20T07:46:48.531Z,437
2017-10-20T07:47:18.527Z,442
2017-10-20T07:47:48.537Z,445
2017-10-20T07:48:18.517Z,450
2017-10-20T07:48:48.561Z,455
2017-10-20T07:49:18.596Z,463
2017-10-20T07:49:48.628Z,475
2017-10-20T07:50:18.632Z,485
2017-10-20T07:50:48.655Z,508
2017-10-20T07:51:18.737Z,530
2017-10-20T07:51:48.754Z,560
2017-10-20T07:52:18.649Z,590
2017-10-20T07:52:48.700Z,620
2017-10-20T07:53:18.740Z,647
2017-10-20T07:53:48.759Z,680
2017-10-20T07:54:18.770Z,712
2017-10-20T07:54:48.813Z,745
2017-10-20T07:55:18.819Z,778
2017-10-20T07:55:48.792Z,802
2017-10-20T07:56:18.874Z,825
2017-10-20T07:56:48.914Z,838
2017-10-20T07:57:18.902Z,850
2017-10-20T07:57:48.894Z,857
2017-10-20T07:58:48.962Z,853
2017-10-20T07:59:18.976Z,850
2017-10-20T07:59:48.985Z,848
2017-10-20T08:00:18.962Z,850
2017-10-20T08:00:49.035Z,863
2017-10-20T08:01:19.088Z,883
2017-10-20T08:01:49.136Z,902
2017-10-20T08:02:19.114Z,923
2017-10-20T08:02:49.092Z,940
2017-10-20T08:03:19.073Z,950
2017-10-20T08:04:19.189Z,938
2017-10-20T08:04:49.186Z,923
2017-10-20T08:05:19.229Z,908
2017-10-20T08:05:49.223Z,895
2017-10-20T08:06:19.309Z,885
2017-10-20T08:06:49.301Z,875
2017-10-20T08:07:19.232Z,860
2017-10-20T08:07:49.303Z,835
2017-10-20T08:08:19.333Z,800
2017-10-20T08:08:49.322Z,763
2017-10-20T08:09:19.353Z,725
2017-10-20T08:09:49.355Z,692
2017-10-20T08:10:19.421Z,667
2017-10-20T08:10:49.357Z,653
2017-10-20T08:11:19.433Z,643
2017-10-20T08:11:49.496Z,637
2017-10-20T08:12:19.416Z,630
2017-10-20T08:12:49.494Z,625
2017-10-20T08:13:49.490Z,632
2017-10-20T08:14:19.552Z,645
2017-10-20T08:14:49.520Z,662
2017-10-20T08:15:19.537Z,683
2017-10-20T08:15:49.553Z,700
2017-10-20T08:16:19.572Z,710
2017-10-20T08:16:49.799Z,712
2017-10-20T08:18:19.661Z,703
2017-10-20T08:18:49.672Z,683
2017-10-20T08:19:19.724Z,665
2017-10-20T08:19:49.732Z,650
2017-10-20T08:20:19.748Z,637
2017-10-20T08:20:49.756Z,620
2017-10-20T08:21:19.808Z,600
2017-10-20T08:21:49.854Z,572
2017-10-20T08:22:19.804Z,545
2017-10-20T08:22:49.850Z,523
2017-10-20T08:23:19.838Z,508
2017-10-20T08:23:49.856Z,495
2017-10-20T08:24:19.874Z,490
2017-10-20T08:24:49.944Z,482
2017-10-20T08:25:19.924Z,480
2017-10-20T08:25:49.927Z,475
2017-10-20T08:26:19.957Z,473
2017-10-20T08:26:50.020Z,470
2017-10-20T08:27:49.992Z,475
2017-10-20T08:28:20.068Z,478
2017-10-20T08:28:50.081Z,480
2017-10-20T08:29:20.080Z,482
2017-10-20T08:29:50.075Z,487
2017-10-20T08:30:20.152Z,493
2017-10-20T08:30:50.127Z,503
2017-10-20T08:31:20.212Z,508
2017-10-20T08:31:50.210Z,512
2017-10-20T08:32:20.249Z,517
2017-10-20T08:32:50.209Z,515
2017-10-20T08:33:50.335Z,517
2017-10-20T08:34:50.323Z,520
2017-10-20T08:35:50.362Z,517
2017-10-20T08:36:20.413Z,512
2017-10-20T08:36:50.413Z,508
2017-10-20T08:37:20.417Z,505
2017-10-20T08:37:50.482Z,500
2017-10-20T08:39:50.480Z,503
2017-10-20T08:40:20.468Z,505
2017-10-20T08:40:50.488Z,510
2017-10-20T08:41:20.552Z,515
2017-10-20T08:41:50.597Z,523
2017-10-20T08:42:20.546Z,535
2017-10-20T08:42:50.597Z,550
2017-10-20T08:43:20.623Z,570
2017-10-20T08:43:50.648Z,595
2017-10-20T08:44:20.635Z,620
2017-10-20T08:44:50.635Z,643
2017-10-20T08:45:20.660Z,665
2017-10-20T08:45:50.697Z,688
2017-10-20T08:46:20.699Z,710
2017-10-20T08:46:50.725Z,725
2017-10-20T08:47:20.790Z,730
2017-10-20T08:47:50.799Z,722
2017-10-20T08:48:20.816Z,707
2017-10-20T08:48:50.795Z,692
2017-10-20T08:49:20.812Z,677
2017-10-20T08:49:50.828Z,662
2017-10-20T08:50:20.845Z,653
2017-10-20T08:50:50.867Z,643
2017-10-20T08:51:20.942Z,640
2017-10-20T08:52:20.974Z,645
2017-10-20T08:52:50.924Z,658
2017-10-20T08:53:20.968Z,673
2017-10-20T08:53:50.986Z,685
2017-10-20T08:54:21.012Z,692
2017-10-20T08:54:51.029Z,690
2017-10-20T08:55:21.101Z,685
2017-10-20T08:55:51.059Z,670
2017-10-20T08:56:21.174Z,650
2017-10-20T08:56:51.133Z,637
2017-10-20T08:57:21.177Z,630
2017-10-20T08:57:51.146Z,635
2017-10-20T08:58:21.192Z,643
2017-10-20T08:58:51.233Z,658
2017-10-20T08:59:21.205Z,673
2017-10-20T08:59:51.243Z,685
2017-10-20T09:00:21.266Z,698
2017-10-20T09:00:51.272Z,710
2017-10-20T09:01:21.335Z,712
2017-10-20T09:01:51.280Z,710
2017-10-20T09:02:21.405Z,700
2017-10-20T09:02:51.330Z,690
2017-10-20T09:03:21.382Z,677
2017-10-20T09:03:51.409Z,667
2017-10-20T09:04:21.401Z,662
2017-10-20T09:04:51.470Z,660
2017-10-20T09:05:21.438Z,662
2017-10-20T09:06:51.601Z,660
2017-10-20T09:07:21.624Z,653
2017-10-20T09:07:51.541Z,645
2017-10-20T09:08:21.569Z,640
2017-10-20T09:08:51.621Z,632
2017-10-20T09:09:21.582Z,630
2017-10-20T09:09:51.668Z,635
2017-10-20T09:10:21.654Z,640
2017-10-20T09:10:51.680Z,658
2017-10-20T09:11:21.701Z,675
2017-10-20T09:11:51.692Z,692
2017-10-20T09:12:21.805Z,707
2017-10-20T09:12:51.726Z,720
2017-10-20T09:13:21.738Z,725
2017-10-20T09:13:51.789Z,728
2017-10-20T09:14:21.794Z,733
2017-10-20T09:15:21.868Z,730
2017-10-20T09:15:51.810Z,733
2017-10-20T09:17:21.912Z,742
2017-10-20T09:17:51.939Z,758
2017-10-20T09:18:21.955Z,775
2017-10-20T09:18:51.968Z,787
2017-10-20T09:19:22.003Z,797
2017-10-20T09:19:52.022Z,802
2017-10-20T09:20:22.019Z,815
2017-10-20T09:20:52.053Z,830
2017-10-20T09:21:22.061Z,855
2017-10-20T09:21:52.121Z,890
2017-10-20T09:22:22.145Z,930
2017-10-20T09:22:52.139Z,960
2017-10-20T09:23:22.174Z,985
2017-10-20T09:23:52.180Z,1007
2017-10-20T09:24:22.193Z,1025
2017-10-20T09:24:52.208Z,1040
2017-10-20T09:25:22.231Z,1063
2017-10-20T09:25:52.248Z,1090
2017-10-20T09:26:22.287Z,1115
2017-10-20T09:26:52.225Z,1127
2017-10-20T09:27:22.297Z,1142
2017-10-20T09:27:52.363Z,1157
2017-10-20T09:28:22.327Z,1172
2017-10-20T09:28:52.365Z,1190
2017-10-20T09:29:22.372Z,1200
2017-10-20T09:29:52.416Z,1210
2017-10-20T09:30:52.461Z,1213
2017-10-20T09:31:22.471Z,1220
2017-10-20T09:31:52.471Z,1230
2017-10-20T09:32:22.470Z,1240
2017-10-20T09:32:52.621Z,1245
2017-10-20T09:33:22.558Z,1237
2017-10-20T09:33:52.528Z,1223
2017-10-20T09:34:22.610Z,1210
2017-10-20T09:34:52.632Z,1193
2017-10-20T09:35:22.598Z,1183
2017-10-20T09:35:52.595Z,1185
2017-10-20T09:36:22.609Z,1187
2017-10-20T09:36:52.891Z,1185
2017-10-20T09:37:22.694Z,1195
2017-10-20T09:37:52.731Z,1215
2017-10-20T09:38:22.695Z,1220
2017-10-20T09:38:52.719Z,1205
2017-10-20T09:39:22.729Z,1185
2017-10-20T09:39:52.742Z,1165
2017-10-20T09:40:22.762Z,1142
2017-10-20T09:40:52.776Z,1130
2017-10-20T09:41:22.804Z,1125
2017-10-20T09:41:52.828Z,1133
2017-10-20T09:42:22.830Z,1142
2017-10-20T09:42:52.899Z,1157
2017-10-20T09:43:22.887Z,1180
2017-10-20T09:43:52.939Z,1210
2017-10-20T09:44:22.945Z,1235
2017-10-20T09:44:52.960Z,1252
2017-10-20T09:45:22.967Z,1268
2017-10-20T09:45:52.968Z,1275
2017-10-20T09:46:22.997Z,1270
2017-10-20T09:46:52.988Z,1262
2017-10-20T09:47:23.028Z,1252
2017-10-20T09:47:53.395Z,1250
2017-10-20T09:48:23.069Z,1255
2017-10-20T09:48:53.073Z,1268
2017-10-20T09:49:23.135Z,1275
2017-10-20T09:49:53.146Z,1277
2017-10-20T09:50:23.191Z,1280
2017-10-20T09:50:53.148Z,1275
2017-10-20T09:51:23.257Z,1260
2017-10-20T09:51:53.267Z,1235
2017-10-20T09:52:23.254Z,1200
2017-10-20T09:52:53.246Z,1165
2017-10-20T09:53:23.244Z,1135
2017-10-20T09:53:53.285Z,1118
2017-10-20T09:54:23.349Z,1100
2017-10-20T09:54:53.375Z,1082
2017-10-20T09:55:23.343Z,1058
2017-10-20T09:55:53.387Z,1030
2017-10-20T09:56:23.381Z,1007
2017-10-20T09:56:53.452Z,990
2017-10-20T09:57:23.466Z,985
2017-10-20T09:57:53.482Z,975
2017-10-20T09:58:23.468Z,967
2017-10-20T09:58:53.486Z,955
2017-10-20T09:59:23.499Z,938
2017-10-20T09:59:53.598Z,920
2017-10-20T10:00:23.628Z,917
2017-10-20T10:00:53.653Z,928
2017-10-20T10:01:23.645Z,947
2017-10-20T10:01:53.663Z,973
2017-10-20T10:02:23.681Z,1003
2017-10-20T10:02:53.799Z,1028
2017-10-20T10:03:23.750Z,1050
2017-10-20T10:03:53.735Z,1075
2017-10-20T10:04:23.821Z,1102
2017-10-20T10:04:53.763Z,1125
2017-10-20T10:05:23.863Z,1140
2017-10-20T10:05:53.850Z,1145
2017-10-20T10:06:23.878Z,1147
2017-10-20T10:06:54.258Z,1165
2017-10-20T10:07:23.957Z,1198
2017-10-20T10:07:54.016Z,1230
2017-10-20T10:08:23.984Z,1258
2017-10-20T10:08:54.000Z,1277
2017-10-20T10:09:24.007Z,1292
2017-10-20T10:09:54.056Z,1305
2017-10-20T10:10:24.080Z,1315
2017-10-20T10:11:24.145Z,1307
2017-10-20T10:11:54.130Z,1290
2017-10-20T10:12:24.178Z,1268
2017-10-20T10:12:55.672Z,1240
2017-10-20T10:13:24.236Z,1220
2017-10-20T10:13:54.202Z,1205
2017-10-20T10:14:24.238Z,1193
2017-10-20T10:14:54.284Z,1187
2017-10-20T10:15:24.296Z,1193
2017-10-20T10:15:54.281Z,1205
2017-10-20T10:16:24.326Z,1223
2017-10-20T10:16:54.364Z,1235
2017-10-20T10:17:24.366Z,1250
2017-10-20T10:17:54.435Z,1252
2017-10-20T10:18:24.372Z,1250
2017-10-20T10:18:54.422Z,1235
2017-10-20T10:19:24.470Z,1213
2017-10-20T10:19:54.455Z,1185
2017-10-20T10:20:24.738Z,1168
2017-10-20T10:20:54.761Z,1150
2017-10-20T10:21:24.744Z,1125
2017-10-20T10:21:54.867Z,1088
2017-10-20T10:22:24.870Z,1045
2017-10-20T10:22:54.883Z,1010
2017-10-20T10:23:24.810Z,995
2017-10-20T10:23:54.881Z,1003
2017-10-20T10:24:24.847Z,1012
2017-10-20T10:24:54.917Z,1020
2017-10-20T10:25:25.877Z,1030
2017-10-20T10:25:55.890Z,1035
2017-10-20T10:26:26.902Z,1037
2017-10-20T10:26:56.925Z,1030
2017-10-20T10:27:28.025Z,1015
2017-10-20T10:27:58.043Z,1007
2017-10-20T10:28:28.040Z,995
2017-10-20T10:28:58.029Z,977
2017-10-20T10:29:28.053Z,960
2017-10-20T10:29:58.102Z,952
2017-10-20T10:30:28.107Z,938
2017-10-20T10:30:58.118Z,930
2017-10-20T10:31:28.146Z,925
2017-10-20T10:32:28.150Z,923
2017-10-20T10:33:28.207Z,935
2017-10-20T10:33:58.248Z,958
2017-10-20T10:34:28.203Z,962
2017-10-20T10:34:58.280Z,960
2017-10-20T10:35:28.253Z,952
2017-10-20T10:35:58.311Z,932
2017-10-20T10:36:28.336Z,905
2017-10-20T10:36:59.802Z,890
2017-10-20T10:37:28.359Z,898
2017-10-20T10:37:58.365Z,913
2017-10-20T10:38:28.456Z,935
2017-10-20T10:38:58.435Z,973
2017-10-20T10:39:28.463Z,1030
2017-10-20T10:39:58.535Z,1095
2017-10-20T10:40:28.439Z,1157
2017-10-20T10:40:58.524Z,1207
2017-10-20T10:41:28.516Z,1250
2017-10-20T10:41:58.489Z,1277
2017-10-20T10:42:28.560Z,1295
2017-10-20T10:42:58.567Z,1307
2017-10-20T10:43:28.573Z,1315
2017-10-20T10:44:28.640Z,1318
2017-10-20T10:44:58.626Z,1312
2017-10-20T10:45:28.657Z,1305
2017-10-20T10:45:58.634Z,1295
2017-10-20T10:46:28.648Z,1288
2017-10-20T10:46:58.682Z,1282
2017-10-20T10:47:28.702Z,1288
2017-10-20T10:47:58.702Z,1290
2017-10-20T10:48:28.739Z,1300
2017-10-20T10:48:58.737Z,1312
2017-10-20T10:49:28.822Z,1322
2017-10-20T10:50:28.789Z,1328
2017-10-20T10:51:28.839Z,1322
2017-10-20T10:51:58.918Z,1318
2017-10-20T10:52:28.883Z,1295
2017-10-20T10:52:58.890Z,1315
2017-10-20T10:53:58.959Z,1307
2017-10-20T10:54:28.945Z,1290
2017-10-20T10:54:58.953Z,1280
2017-10-20T10:55:58.996Z,1298
2017-10-20T10:56:29.019Z,1315
2017-10-20T10:56:59.102Z,1325
2017-10-20T10:57:29.097Z,1337
2017-10-20T10:57:59.129Z,1352
2017-10-20T10:58:29.079Z,1360
2017-10-20T10:58:59.196Z,1367
2017-10-20T10:59:29.118Z,1390
2017-10-20T10:59:59.170Z,1415
2017-10-20T11:00:29.232Z,1440
2017-10-20T11:00:59.171Z,1460
2017-10-20T11:01:29.190Z,1472
2017-10-20T11:01:59.209Z,1465
2017-10-20T11:02:29.297Z,1440
2017-10-20T11:02:59.311Z,1408
2017-10-20T11:03:29.259Z,1378
2017-10-20T11:03:59.366Z,1367
2017-10-20T11:04:29.327Z,1363
2017-10-20T11:04:59.352Z,1365
2017-10-20T11:05:29.331Z,1387
2017-10-20T11:05:59.357Z,1438
2017-10-20T11:06:29.430Z,1530
2017-10-20T11:06:59.459Z,1630
2017-10-20T11:07:29.500Z,1750
2017-10-20T11:07:59.492Z,1840
2017-10-20T11:08:30.493Z,1875
2017-10-20T11:09:00.732Z,1858
2017-10-20T11:09:30.515Z,1817
2017-10-20T11:10:00.666Z,1780
2017-10-20T11:10:30.579Z,1760
2017-10-20T11:11:00.833Z,1795
2017-10-20T11:11:30.545Z,1852
2017-10-20T11:12:00.638Z,1897
2017-10-20T11:12:30.636Z,1907
2017-10-20T11:13:01.220Z,1880
2017-10-20T11:13:30.679Z,1778
2017-10-20T11:14:00.704Z,1637
2017-10-20T11:14:30.705Z,1510
2017-10-20T11:15:01.265Z,1427
2017-10-20T11:15:30.778Z,1420
2017-10-20T11:16:30.802Z,1370
2017-10-20T11:17:01.365Z,1322
2017-10-20T11:17:30.833Z,1273
2017-10-20T11:18:00.800Z,1200
2017-10-20T11:18:30.849Z,1155
2017-10-20T11:19:00.855Z,1125
2017-10-20T11:19:30.891Z,1112
2017-10-20T11:20:30.936Z,1123
2017-10-20T11:21:00.902Z,1133
2017-10-20T11:21:30.987Z,1140
2017-10-20T11:22:00.990Z,1153
2017-10-20T11:22:31.004Z,1175
2017-10-20T11:23:00.978Z,1202
2017-10-20T11:23:31.070Z,1220
2017-10-20T11:24:01.066Z,1213
2017-10-20T11:24:31.085Z,1193
2017-10-20T11:25:01.051Z,1168
2017-10-20T11:25:31.070Z,1135
2017-10-20T11:26:01.157Z,1115
2017-10-20T11:26:31.149Z,1100
2017-10-20T11:27:01.117Z,1097
2017-10-20T11:27:31.187Z,1108
2017-10-20T11:28:01.154Z,1110
2017-10-20T11:28:31.235Z,1093
2017-10-20T11:29:01.478Z,1058
2017-10-20T11:29:31.311Z,1025
2017-10-20T11:30:01.319Z,985
2017-10-20T11:30:31.358Z,945
2017-10-20T11:31:01.341Z,898
2017-10-20T11:31:31.333Z,845
2017-10-20T11:32:01.406Z,800
2017-10-20T11:32:31.405Z,763
2017-10-20T11:33:01.393Z,737
2017-10-20T11:33:31.460Z,730
2017-10-20T11:34:01.535Z,740
2017-10-20T11:34:31.452Z,765
2017-10-20T11:35:01.449Z,797
2017-10-20T11:35:31.525Z,830
2017-10-20T11:36:01.495Z,863
2017-10-20T11:36:31.512Z,887
2017-10-20T11:37:01.598Z,895
2017-10-20T11:37:31.561Z,892
2017-10-20T11:38:01.567Z,880
2017-10-20T11:38:31.656Z,857
2017-10-20T11:39:01.658Z,825
2017-10-20T11:39:31.647Z,790
2017-10-20T11:40:01.670Z,745
2017-10-20T11:40:31.665Z,703
2017-10-20T11:41:01.729Z,675
2017-10-20T11:41:31.748Z,658
2017-10-20T11:42:01.757Z,653
2017-10-20T11:42:31.735Z,660
2017-10-20T11:43:01.753Z,673
2017-10-20T11:43:31.764Z,690
2017-10-20T11:44:01.862Z,707
2017-10-20T11:44:31.813Z,725
2017-10-20T11:45:01.851Z,742
2017-10-20T11:45:31.846Z,755
2017-10-20T11:46:01.855Z,763
2017-10-20T11:46:31.907Z,758
2017-10-20T11:47:01.928Z,742
2017-10-20T11:47:31.925Z,720
2017-10-20T11:48:01.924Z,690
2017-10-20T11:48:31.957Z,667
2017-10-20T11:49:02.033Z,650
2017-10-20T11:49:31.992Z,645
2017-10-20T11:50:32.038Z,653
2017-10-20T11:51:02.065Z,658
2017-10-20T11:51:32.135Z,665
2017-10-20T11:52:02.167Z,670
2017-10-20T11:52:32.175Z,675
2017-10-20T11:53:02.160Z,683
2017-10-20T11:53:32.244Z,690
2017-10-20T11:54:02.295Z,700
2017-10-20T11:54:32.256Z,712
2017-10-20T11:55:02.307Z,728
2017-10-20T11:55:32.295Z,745
2017-10-20T11:56:02.322Z,765
2017-10-20T11:56:32.346Z,785
2017-10-20T11:57:02.314Z,802
2017-10-20T11:57:32.383Z,823
2017-10-20T11:58:02.396Z,840
2017-10-20T11:58:32.434Z,860
2017-10-20T11:59:02.501Z,885
2017-10-20T11:59:32.435Z,913
2017-10-20T12:00:02.443Z,938
2017-10-20T12:00:32.514Z,952
2017-10-20T12:01:02.500Z,960
2017-10-20T12:02:02.559Z,975
2017-10-20T12:02:32.613Z,1005
2017-10-20T12:03:02.585Z,1042
2017-10-20T12:03:32.566Z,1088
2017-10-20T12:04:02.658Z,1153
2017-10-20T12:04:32.609Z,1240
2017-10-20T12:05:02.631Z,1348
2017-10-20T12:05:32.629Z,1483
2017-10-20T12:06:02.644Z,1652
2017-10-20T12:06:32.679Z,1860
2017-10-20T12:07:02.936Z,2092
2017-10-20T12:07:32.727Z,2338
2017-10-20T12:08:02.735Z,2552
2017-10-20T12:08:32.751Z,2792
2017-10-20T12:09:02.817Z,3002
2017-10-20T12:09:32.788Z,3073
2017-10-20T12:10:02.829Z,3090
2017-10-20T12:10:32.827Z,3100
2017-10-20T12:11:02.842Z,3128
2017-10-20T12:11:32.881Z,3188
2017-10-20T12:12:02.900Z,3270
2017-10-20T12:12:32.917Z,3373
2017-10-20T12:13:02.933Z,3615
2017-10-20T12:13:33.989Z,4105
2017-10-20T12:14:04.029Z,4045
2017-10-20T12:14:34.027Z,4615
2017-10-20T12:15:04.029Z,4855
2017-10-20T12:15:34.080Z,5107
2017-10-20T12:16:04.119Z,5812
2017-10-20T12:16:34.141Z,7952
2017-10-20T12:17:04.110Z,6592
2017-10-20T12:17:34.143Z,6458
2017-10-20T12:18:04.165Z,6600
2017-10-20T12:18:34.188Z,6808
2017-10-20T12:19:04.208Z,6910
2017-10-20T12:19:34.223Z,7183
2017-10-20T12:20:04.238Z,7972
2017-10-20T12:20:34.269Z,17100
2017-10-20T12:21:04.301Z,10933
2017-10-20T12:21:34.327Z,11137
2017-10-20T12:22:04.347Z,10478
2017-10-20T12:22:34.336Z,11995
2017-10-20T12:23:04.316Z,22267
2017-10-20T12:23:34.410Z,18220
2017-10-20T12:24:04.385Z,26120
2017-10-20T12:24:34.466Z,24388
2017-10-20T12:25:04.425Z,9390
2017-10-20T12:25:34.486Z,8835
2017-10-20T12:26:04.521Z,10220
2017-10-20T12:26:34.472Z,12575
2017-10-20T12:27:04.497Z,9785
2017-10-20T12:27:34.509Z,9035
2017-10-20T12:28:04.582Z,8970
2017-10-20T12:28:34.551Z,24613
2017-10-20T12:29:04.601Z,9800
2017-10-20T12:29:34.606Z,8218
2017-10-20T12:30:04.602Z,17635
2017-10-20T12:30:34.619Z,12118
2017-10-20T12:31:04.657Z,11032
2017-10-20T12:31:34.661Z,8483
2017-10-20T12:32:04.664Z,7935
2017-10-20T12:32:34.735Z,7705
2017-10-20T12:33:04.699Z,7927
2017-10-20T12:33:34.761Z,11873
2017-10-20T12:34:04.737Z,12868
2017-10-20T12:34:34.768Z,10780
2017-10-20T12:35:04.773Z,27362
2017-10-20T12:35:34.802Z,27358
2017-10-20T12:36:04.836Z,14798
2017-10-20T12:36:35.819Z,19088
2017-10-20T12:37:05.896Z,11620
2017-10-20T12:37:36.009Z,7320
2017-10-20T12:38:05.867Z,6370
2017-10-20T12:38:35.902Z,5870
2017-10-20T12:39:05.917Z,5470
2017-10-20T12:39:35.958Z,5053
2017-10-20T12:40:05.940Z,4648
2017-10-20T12:40:35.962Z,4530
2017-10-20T12:41:05.981Z,4498
2017-10-20T12:41:36.003Z,4515
2017-10-20T12:42:06.015Z,4590
2017-10-20T12:42:36.035Z,4780
2017-10-20T12:43:06.057Z,5020
2017-10-20T12:43:36.127Z,5347
2017-10-20T12:44:06.094Z,5677
2017-10-20T12:44:36.125Z,5822
2017-10-20T12:45:06.155Z,5915
2017-10-20T12:45:36.232Z,6200
2017-10-20T12:46:06.212Z,6055
2017-10-20T12:46:36.182Z,5828
2017-10-20T12:47:06.223Z,5620
2017-10-20T12:47:36.296Z,5855
2017-10-20T12:48:06.279Z,5692
2017-10-20T12:48:36.287Z,5515
2017-10-20T12:49:06.324Z,5380
2017-10-20T12:49:36.366Z,5220
2017-10-20T12:50:06.352Z,5245
2017-10-20T12:50:36.363Z,5588
2017-10-20T12:51:06.395Z,5950
2017-10-20T12:51:36.405Z,6232
2017-10-20T12:52:06.491Z,6310
2017-10-20T12:52:36.414Z,6118
2017-10-20T12:53:06.477Z,5625
2017-10-20T12:53:36.513Z,5213
2017-10-20T12:54:06.529Z,4982
2017-10-20T12:54:36.533Z,4802
2017-10-20T12:55:06.576Z,4753
2017-10-20T12:55:36.605Z,4825
2017-10-20T12:56:06.613Z,4935
2017-10-20T12:56:36.644Z,5102
2017-10-20T12:57:06.672Z,5425
2017-10-20T12:57:36.666Z,5165
2017-10-20T12:58:06.680Z,5923
2017-10-20T12:58:36.749Z,8930
2017-10-20T12:59:06.733Z,8120
2017-10-20T12:59:36.706Z,10395
2017-10-20T13:00:06.820Z,4498